sensor_id;sensor_type;location;lat;lon;timestamp;temperature;humidity
70839;DHT22;58464;52.298;4.852;2022-08-21T00:00:48;17.85;74.31
70839;DHT22;58464;52.298;4.852;2022-08-21T00:03:14;17.92;74.37
70839;DHT22;58464;52.298;4.852;2022-08-21T00:05:45;17.84;74.65
70839;DHT22;58464;52.298;4.852;2022-08-21T00:08:12;17.84;74.82
70839;DHT22;58464;52.298;4.852;2022-08-21T00:10:39;17.84;75.11
70839;DHT22;58464;52.298;4.852;2022-08-21T00:13:05;17.79;75.41
70839;DHT22;58464;52.298;4.852;2022-08-21T00:15:32;17.81;75.37
70839;DHT22;58464;52.298;4.852;2022-08-21T00:17:58;17.79;75.54
70839;DHT22;58464;52.298;4.852;2022-08-21T00:20:24;17.81;75.50
70839;DHT22;58464;52.298;4.852;2022-08-21T00:22:50;17.74;75.80
70839;DHT22;58464;52.298;4.852;2022-08-21T00:25:18;17.73;76.00
70839;DHT22;58464;52.298;4.852;2022-08-21T00:27:44;17.67;76.16
70839;DHT22;58464;52.298;4.852;2022-08-21T00:30:14;17.61;76.64
70839;DHT22;58464;52.298;4.852;2022-08-21T00:32:40;17.70;76.41
70839;DHT22;58464;52.298;4.852;2022-08-21T00:35:08;17.61;76.59
70839;DHT22;58464;52.298;4.852;2022-08-21T00:37:34;17.60;76.74
70839;DHT22;58464;52.298;4.852;2022-08-21T00:40:00;17.50;77.03
70839;DHT22;58464;52.298;4.852;2022-08-21T00:42:28;17.46;77.43
70839;DHT22;58464;52.298;4.852;2022-08-21T00:44:54;17.50;77.36
70839;DHT22;58464;52.298;4.852;2022-08-21T00:47:19;17.50;77.58
70839;DHT22;58464;52.298;4.852;2022-08-21T00:49:46;17.50;77.44
70839;DHT22;58464;52.298;4.852;2022-08-21T00:52:16;17.44;77.73
70839;DHT22;58464;52.298;4.852;2022-08-21T00:54:43;17.41;77.85
70839;DHT22;58464;52.298;4.852;2022-08-21T00:57:14;17.37;77.98
70839;DHT22;58464;52.298;4.852;2022-08-21T00:59:43;17.38;78.10
70839;DHT22;58464;52.298;4.852;2022-08-21T01:02:10;17.41;78.11
70839;DHT22;58464;52.298;4.852;2022-08-21T01:04:36;17.37;78.13
70839;DHT22;58464;52.298;4.852;2022-08-21T01:07:02;17.33;78.40
70839;DHT22;58464;52.298;4.852;2022-08-21T01:09:28;17.30;78.93
70839;DHT22;58464;52.298;4.852;2022-08-21T01:11:54;17.30;78.81
70839;DHT22;58464;52.298;4.852;2022-08-21T01:14:19;17.31;78.75
70839;DHT22;58464;52.298;4.852;2022-08-21T01:16:50;17.28;78.95
70839;DHT22;58464;52.298;4.852;2022-08-21T01:19:17;17.20;79.32
70839;DHT22;58464;52.298;4.852;2022-08-21T01:21:43;17.19;79.41
70839;DHT22;58464;52.298;4.852;2022-08-21T01:24:09;17.22;79.48
70839;DHT22;58464;52.298;4.852;2022-08-21T01:26:35;17.22;79.63
70839;DHT22;58464;52.298;4.852;2022-08-21T01:29:09;17.16;79.73
70839;DHT22;58464;52.298;4.852;2022-08-21T01:31:36;17.09;80.10
70839;DHT22;58464;52.298;4.852;2022-08-21T01:34:02;17.15;79.96
70839;DHT22;58464;52.298;4.852;2022-08-21T01:36:28;17.09;80.12
70839;DHT22;58464;52.298;4.852;2022-08-21T01:38:55;17.09;80.42
70839;DHT22;58464;52.298;4.852;2022-08-21T01:41:20;17.12;80.19
70839;DHT22;58464;52.298;4.852;2022-08-21T01:43:46;17.10;80.32
70839;DHT22;58464;52.298;4.852;2022-08-21T01:46:12;17.07;80.49
70839;DHT22;58464;52.298;4.852;2022-08-21T01:48:37;17.00;80.67
70839;DHT22;58464;52.298;4.852;2022-08-21T01:51:04;17.07;80.88
70839;DHT22;58464;52.298;4.852;2022-08-21T01:53:30;17.06;80.58
70839;DHT22;58464;52.298;4.852;2022-08-21T01:55:56;17.10;80.79
70839;DHT22;58464;52.298;4.852;2022-08-21T01:58:21;17.06;80.90
70839;DHT22;58464;52.298;4.852;2022-08-21T02:00:47;17.03;81.05
70839;DHT22;58464;52.298;4.852;2022-08-21T02:03:13;17.00;81.40
70839;DHT22;58464;52.298;4.852;2022-08-21T02:05:39;16.96;81.43
70839;DHT22;58464;52.298;4.852;2022-08-21T02:08:06;17.05;81.15
70839;DHT22;58464;52.298;4.852;2022-08-21T02:10:32;17.00;81.44
70839;DHT22;58464;52.298;4.852;2022-08-21T02:12:58;16.96;81.73
70839;DHT22;58464;52.298;4.852;2022-08-21T02:15:25;16.96;81.83
70839;DHT22;58464;52.298;4.852;2022-08-21T02:17:55;16.93;81.86
70839;DHT22;58464;52.298;4.852;2022-08-21T02:22:48;16.89;81.87
70839;DHT22;58464;52.298;4.852;2022-08-21T02:25:16;16.86;82.08
70839;DHT22;58464;52.298;4.852;2022-08-21T02:27:44;16.83;82.27
70839;DHT22;58464;52.298;4.852;2022-08-21T02:30:33;16.87;81.92
70839;DHT22;58464;52.298;4.852;2022-08-21T02:32:59;16.85;81.99
70839;DHT22;58464;52.298;4.852;2022-08-21T02:35:25;16.86;82.03
70839;DHT22;58464;52.298;4.852;2022-08-21T02:38:01;16.89;82.32
70839;DHT22;58464;52.298;4.852;2022-08-21T02:40:31;16.85;82.18
70839;DHT22;58464;52.298;4.852;2022-08-21T02:42:58;16.85;82.12
70839;DHT22;58464;52.298;4.852;2022-08-21T02:45:24;16.85;82.16
70839;DHT22;58464;52.298;4.852;2022-08-21T02:47:52;16.82;82.13
70839;DHT22;58464;52.298;4.852;2022-08-21T02:50:28;16.82;82.18
70839;DHT22;58464;52.298;4.852;2022-08-21T02:52:54;16.79;82.39
70839;DHT22;58464;52.298;4.852;2022-08-21T02:55:20;16.71;82.35
70839;DHT22;58464;52.298;4.852;2022-08-21T02:57:47;16.79;82.28
70839;DHT22;58464;52.298;4.852;2022-08-21T03:00:12;16.71;82.28
70839;DHT22;58464;52.298;4.852;2022-08-21T03:02:39;16.71;82.42
70839;DHT22;58464;52.298;4.852;2022-08-21T03:05:06;16.61;82.70
70839;DHT22;58464;52.298;4.852;2022-08-21T03:07:32;16.62;82.47
70839;DHT22;58464;52.298;4.852;2022-08-21T03:09:57;16.69;82.45
70839;DHT22;58464;52.298;4.852;2022-08-21T03:12:24;16.64;82.48
70839;DHT22;58464;52.298;4.852;2022-08-21T03:14:49;16.64;82.66
70839;DHT22;58464;52.298;4.852;2022-08-21T03:17:15;16.62;82.58
70839;DHT22;58464;52.298;4.852;2022-08-21T03:19:41;16.52;83.01
70839;DHT22;58464;52.298;4.852;2022-08-21T03:22:07;16.44;83.46
70839;DHT22;58464;52.298;4.852;2022-08-21T03:24:32;16.37;83.51
70839;DHT22;58464;52.298;4.852;2022-08-21T03:26:58;16.42;83.46
70839;DHT22;58464;52.298;4.852;2022-08-21T03:29:23;16.32;83.53
70839;DHT22;58464;52.298;4.852;2022-08-21T03:31:49;16.29;83.86
70839;DHT22;58464;52.298;4.852;2022-08-21T03:34:14;16.28;83.88
70839;DHT22;58464;52.298;4.852;2022-08-21T03:36:40;16.34;83.76
70839;DHT22;58464;52.298;4.852;2022-08-21T03:39:05;16.40;83.61
70839;DHT22;58464;52.298;4.852;2022-08-21T03:41:31;16.32;83.83
70839;DHT22;58464;52.298;4.852;2022-08-21T03:43:56;16.35;83.62
70839;DHT22;58464;52.298;4.852;2022-08-21T03:46:21;16.28;83.69
70839;DHT22;58464;52.298;4.852;2022-08-21T03:48:47;16.31;84.06
70839;DHT22;58464;52.298;4.852;2022-08-21T03:51:12;16.31;83.51
70839;DHT22;58464;52.298;4.852;2022-08-21T03:53:38;16.28;83.84
70839;DHT22;58464;52.298;4.852;2022-08-21T03:56:04;16.31;83.62
70839;DHT22;58464;52.298;4.852;2022-08-21T03:58:30;16.27;83.57
70839;DHT22;58464;52.298;4.852;2022-08-21T04:00:57;16.11;84.14
70839;DHT22;58464;52.298;4.852;2022-08-21T04:03:24;16.14;83.90
70839;DHT22;58464;52.298;4.852;2022-08-21T04:05:50;16.16;84.16
70839;DHT22;58464;52.298;4.852;2022-08-21T04:08:17;16.11;84.16
70839;DHT22;58464;52.298;4.852;2022-08-21T04:10:46;16.18;83.94
70839;DHT22;58464;52.298;4.852;2022-08-21T04:13:12;16.16;84.28
70839;DHT22;58464;52.298;4.852;2022-08-21T04:15:38;16.10;84.17
70839;DHT22;58464;52.298;4.852;2022-08-21T04:18:04;16.10;84.54
70839;DHT22;58464;52.298;4.852;2022-08-21T04:20:30;16.13;84.64
70839;DHT22;58464;52.298;4.852;2022-08-21T04:22:56;16.07;84.59
70839;DHT22;58464;52.298;4.852;2022-08-21T04:25:22;16.10;84.60
70839;DHT22;58464;52.298;4.852;2022-08-21T04:27:48;16.14;84.55
70839;DHT22;58464;52.298;4.852;2022-08-21T04:30:15;16.07;84.40
70839;DHT22;58464;52.298;4.852;2022-08-21T04:32:46;16.04;84.79
70839;DHT22;58464;52.298;4.852;2022-08-21T04:35:13;16.08;84.37
70839;DHT22;58464;52.298;4.852;2022-08-21T04:37:39;16.01;84.60
70839;DHT22;58464;52.298;4.852;2022-08-21T04:40:06;16.03;84.79
70839;DHT22;58464;52.298;4.852;2022-08-21T04:42:32;15.98;84.95
70839;DHT22;58464;52.298;4.852;2022-08-21T04:44:58;15.98;84.96
70839;DHT22;58464;52.298;4.852;2022-08-21T04:47:24;15.96;84.91
70839;DHT22;58464;52.298;4.852;2022-08-21T04:49:50;15.98;84.92
70839;DHT22;58464;52.298;4.852;2022-08-21T04:52:19;15.97;84.96
70839;DHT22;58464;52.298;4.852;2022-08-21T04:54:46;15.98;85.04
70839;DHT22;58464;52.298;4.852;2022-08-21T04:57:13;16.03;84.65
70839;DHT22;58464;52.298;4.852;2022-08-21T04:59:44;16.04;84.65
70839;DHT22;58464;52.298;4.852;2022-08-21T05:02:12;16.17;84.37
70839;DHT22;58464;52.298;4.852;2022-08-21T05:04:42;16.14;84.32
70839;DHT22;58464;52.298;4.852;2022-08-21T05:07:15;16.17;83.97
70839;DHT22;58464;52.298;4.852;2022-08-21T05:09:41;16.22;83.92
70839;DHT22;58464;52.298;4.852;2022-08-21T05:12:07;16.24;83.88
70839;DHT22;58464;52.298;4.852;2022-08-21T05:14:33;16.28;83.99
70839;DHT22;58464;52.298;4.852;2022-08-21T05:16:58;16.27;83.77
70839;DHT22;58464;52.298;4.852;2022-08-21T05:19:24;16.27;83.99
70839;DHT22;58464;52.298;4.852;2022-08-21T05:21:50;16.31;83.93
70839;DHT22;58464;52.298;4.852;2022-08-21T05:24:15;16.40;83.66
70839;DHT22;58464;52.298;4.852;2022-08-21T05:26:41;16.48;83.26
70839;DHT22;58464;52.298;4.852;2022-08-21T05:29:07;16.54;82.96
70839;DHT22;58464;52.298;4.852;2022-08-21T05:31:33;16.57;83.07
70839;DHT22;58464;52.298;4.852;2022-08-21T05:33:58;16.68;82.92
70839;DHT22;58464;52.298;4.852;2022-08-21T05:36:24;16.76;82.62
70839;DHT22;58464;52.298;4.852;2022-08-21T05:38:49;16.80;82.58
70839;DHT22;58464;52.298;4.852;2022-08-21T05:41:15;16.83;82.37
70839;DHT22;58464;52.298;4.852;2022-08-21T05:43:40;16.87;82.39
70839;DHT22;58464;52.298;4.852;2022-08-21T05:46:06;16.96;82.08
70839;DHT22;58464;52.298;4.852;2022-08-21T05:48:33;17.07;81.75
70839;DHT22;58464;52.298;4.852;2022-08-21T05:51:13;17.00;82.09
70839;DHT22;58464;52.298;4.852;2022-08-21T05:53:40;17.07;81.81
70839;DHT22;58464;52.298;4.852;2022-08-21T05:56:07;17.12;81.72
70839;DHT22;58464;52.298;4.852;2022-08-21T05:58:33;17.24;81.42
70839;DHT22;58464;52.298;4.852;2022-08-21T06:01:01;17.22;81.39
70839;DHT22;58464;52.298;4.852;2022-08-21T06:03:36;17.37;81.39
70839;DHT22;58464;52.298;4.852;2022-08-21T06:06:02;17.34;81.25
70839;DHT22;58464;52.298;4.852;2022-08-21T06:08:27;17.43;80.99
70839;DHT22;58464;52.298;4.852;2022-08-21T06:10:55;17.47;80.76
70839;DHT22;58464;52.298;4.852;2022-08-21T06:13:21;17.48;80.92
70839;DHT22;58464;52.298;4.852;2022-08-21T06:15:47;17.53;80.64
70839;DHT22;58464;52.298;4.852;2022-08-21T06:18:13;17.57;80.79
70839;DHT22;58464;52.298;4.852;2022-08-21T06:20:39;17.64;80.39
70839;DHT22;58464;52.298;4.852;2022-08-21T06:23:05;17.65;80.53
70839;DHT22;58464;52.298;4.852;2022-08-21T06:25:30;17.61;80.84
70839;DHT22;58464;52.298;4.852;2022-08-21T06:28:08;17.65;80.65
70839;DHT22;58464;52.298;4.852;2022-08-21T06:30:35;17.81;80.75
70839;DHT22;58464;52.298;4.852;2022-08-21T06:33:01;17.82;80.11
70839;DHT22;58464;52.298;4.852;2022-08-21T06:35:27;17.88;80.18
70839;DHT22;58464;52.298;4.852;2022-08-21T06:37:54;17.91;80.04
70839;DHT22;58464;52.298;4.852;2022-08-21T06:40:20;17.92;80.18
70839;DHT22;58464;52.298;4.852;2022-08-21T06:42:45;18.02;80.14
70839;DHT22;58464;52.298;4.852;2022-08-21T06:45:10;18.06;80.00
70839;DHT22;58464;52.298;4.852;2022-08-21T06:47:36;18.12;79.82
70839;DHT22;58464;52.298;4.852;2022-08-21T06:50:02;18.12;79.96
70839;DHT22;58464;52.298;4.852;2022-08-21T06:52:29;18.12;80.04
70839;DHT22;58464;52.298;4.852;2022-08-21T06:54:55;18.22;80.20
70839;DHT22;58464;52.298;4.852;2022-08-21T06:57:21;18.37;79.63
70839;DHT22;58464;52.298;4.852;2022-08-21T06:59:47;18.46;79.53
70839;DHT22;58464;52.298;4.852;2022-08-21T07:02:12;18.61;79.50
70839;DHT22;58464;52.298;4.852;2022-08-21T07:04:37;18.54;79.02
70839;DHT22;58464;52.298;4.852;2022-08-21T07:07:03;18.56;79.50
70839;DHT22;58464;52.298;4.852;2022-08-21T07:09:28;18.73;79.27
70839;DHT22;58464;52.298;4.852;2022-08-21T07:11:55;18.97;78.63
70839;DHT22;58464;52.298;4.852;2022-08-21T07:14:21;19.00;78.47
70839;DHT22;58464;52.298;4.852;2022-08-21T07:16:48;19.05;78.64
70839;DHT22;58464;52.298;4.852;2022-08-21T07:19:14;19.11;78.32
70839;DHT22;58464;52.298;4.852;2022-08-21T07:21:39;19.18;78.20
70839;DHT22;58464;52.298;4.852;2022-08-21T07:24:05;19.28;78.41
70839;DHT22;58464;52.298;4.852;2022-08-21T07:26:30;19.48;77.83
70839;DHT22;58464;52.298;4.852;2022-08-21T07:28:55;19.55;77.59
70839;DHT22;58464;52.298;4.852;2022-08-21T07:31:23;19.62;77.20
70839;DHT22;58464;52.298;4.852;2022-08-21T07:33:49;19.70;77.20
70839;DHT22;58464;52.298;4.852;2022-08-21T07:36:14;19.76;77.27
70839;DHT22;58464;52.298;4.852;2022-08-21T07:38:40;19.83;77.16
70839;DHT22;58464;52.298;4.852;2022-08-21T07:41:13;19.84;77.24
70839;DHT22;58464;52.298;4.852;2022-08-21T07:43:39;20.03;76.79
70839;DHT22;58464;52.298;4.852;2022-08-21T07:46:05;20.09;76.69
70839;DHT22;58464;52.298;4.852;2022-08-21T07:48:30;20.18;76.00
70839;DHT22;58464;52.298;4.852;2022-08-21T07:50:56;20.27;75.71
70839;DHT22;58464;52.298;4.852;2022-08-21T07:53:21;20.55;75.52
70839;DHT22;58464;52.298;4.852;2022-08-21T07:55:47;20.44;75.41
70839;DHT22;58464;52.298;4.852;2022-08-21T07:58:13;20.61;75.28
70839;DHT22;58464;52.298;4.852;2022-08-21T08:00:39;20.52;75.28
70839;DHT22;58464;52.298;4.852;2022-08-21T08:03:05;20.42;75.66
70839;DHT22;58464;52.298;4.852;2022-08-21T08:05:31;20.34;75.64
70839;DHT22;58464;52.298;4.852;2022-08-21T08:07:57;20.51;75.64
70839;DHT22;58464;52.298;4.852;2022-08-21T08:10:24;20.58;75.59
70839;DHT22;58464;52.298;4.852;2022-08-21T08:12:51;20.52;75.30
70839;DHT22;58464;52.298;4.852;2022-08-21T08:15:23;20.56;75.04
70839;DHT22;58464;52.298;4.852;2022-08-21T08:17:49;20.79;74.72
70839;DHT22;58464;52.298;4.852;2022-08-21T08:20:16;21.09;74.05
70839;DHT22;58464;52.298;4.852;2022-08-21T08:22:44;21.07;73.78
70839;DHT22;58464;52.298;4.852;2022-08-21T08:25:11;21.33;73.15
70839;DHT22;58464;52.298;4.852;2022-08-21T08:27:37;21.41;72.98
70839;DHT22;58464;52.298;4.852;2022-08-21T08:30:05;21.68;72.14
70839;DHT22;58464;52.298;4.852;2022-08-21T08:32:31;21.68;71.98
70839;DHT22;58464;52.298;4.852;2022-08-21T08:34:56;21.71;71.72
70839;DHT22;58464;52.298;4.852;2022-08-21T08:37:23;21.74;71.51
70839;DHT22;58464;52.298;4.852;2022-08-21T08:39:48;21.73;71.47
70839;DHT22;58464;52.298;4.852;2022-08-21T08:42:27;21.80;71.92
70839;DHT22;58464;52.298;4.852;2022-08-21T08:45:07;21.74;71.60
70839;DHT22;58464;52.298;4.852;2022-08-21T08:47:37;21.64;71.83
70839;DHT22;58464;52.298;4.852;2022-08-21T08:52:46;21.27;73.20
70839;DHT22;58464;52.298;4.852;2022-08-21T08:55:15;21.18;73.77
70839;DHT22;58464;52.298;4.852;2022-08-21T08:57:47;21.12;74.30
70839;DHT22;58464;52.298;4.852;2022-08-21T09:00:17;21.23;74.64
70839;DHT22;58464;52.298;4.852;2022-08-21T09:02:44;21.33;73.56
70839;DHT22;58464;52.298;4.852;2022-08-21T09:05:24;21.65;72.83
70839;DHT22;58464;52.298;4.852;2022-08-21T09:10:47;22.50;68.85
70839;DHT22;58464;52.298;4.852;2022-08-21T09:13:27;22.29;68.19
70839;DHT22;58464;52.298;4.852;2022-08-21T09:21:24;22.53;68.02
70839;DHT22;58464;52.298;4.852;2022-08-21T09:24:02;22.77;67.24
70839;DHT22;58464;52.298;4.852;2022-08-21T09:26:38;23.00;66.11
70839;DHT22;58464;52.298;4.852;2022-08-21T09:29:06;23.03;65.93
70839;DHT22;58464;52.298;4.852;2022-08-21T09:31:35;22.53;67.21
70839;DHT22;58464;52.298;4.852;2022-08-21T09:34:08;22.40;68.25
70839;DHT22;58464;52.298;4.852;2022-08-21T09:36:43;22.28;67.99
70839;DHT22;58464;52.298;4.852;2022-08-21T09:39:11;22.46;66.94
70839;DHT22;58464;52.298;4.852;2022-08-21T09:41:38;22.57;66.63
70839;DHT22;58464;52.298;4.852;2022-08-21T09:44:05;22.87;65.87
70839;DHT22;58464;52.298;4.852;2022-08-21T09:46:32;23.07;65.48
70839;DHT22;58464;52.298;4.852;2022-08-21T09:49:00;22.74;65.68
70839;DHT22;58464;52.298;4.852;2022-08-21T09:51:36;22.61;66.64
70839;DHT22;58464;52.298;4.852;2022-08-21T09:54:17;22.79;65.54
70839;DHT22;58464;52.298;4.852;2022-08-21T09:59:53;22.66;63.81
70839;DHT22;58464;52.298;4.852;2022-08-21T10:04:56;23.39;60.07
70839;DHT22;58464;52.298;4.852;2022-08-21T10:07:23;23.63;58.22
70839;DHT22;58464;52.298;4.852;2022-08-21T10:10:06;23.72;58.30
70839;DHT22;58464;52.298;4.852;2022-08-21T10:12:42;24.07;57.96
70839;DHT22;58464;52.298;4.852;2022-08-21T10:20:27;23.80;57.61
70839;DHT22;58464;52.298;4.852;2022-08-21T10:23:26;23.92;55.34
70839;DHT22;58464;52.298;4.852;2022-08-21T10:25:58;24.26;53.38
70839;DHT22;58464;52.298;4.852;2022-08-21T10:28:36;24.19;53.17
70839;DHT22;58464;52.298;4.852;2022-08-21T10:37:05;24.13;55.72
70839;DHT22;58464;52.298;4.852;2022-08-21T10:39:40;24.21;56.47
70839;DHT22;58464;52.298;4.852;2022-08-21T10:42:16;24.28;56.49
70839;DHT22;58464;52.298;4.852;2022-08-21T10:47:36;24.79;52.13
70839;DHT22;58464;52.298;4.852;2022-08-21T10:57:46;24.85;53.18
70839;DHT22;58464;52.298;4.852;2022-08-21T11:00:15;24.26;53.98
70839;DHT22;58464;52.298;4.852;2022-08-21T11:05:48;24.69;53.35
70839;DHT22;58464;52.298;4.852;2022-08-21T11:08:39;25.59;51.14
70839;DHT22;58464;52.298;4.852;2022-08-21T11:11:08;25.78;50.26
70839;DHT22;58464;52.298;4.852;2022-08-21T11:13:51;25.08;50.82
70839;DHT22;58464;52.298;4.852;2022-08-21T11:16:41;24.28;53.40
70839;DHT22;58464;52.298;4.852;2022-08-21T11:19:24;24.02;53.48
70839;DHT22;58464;52.298;4.852;2022-08-21T11:21:58;24.02;54.12
70839;DHT22;58464;52.298;4.852;2022-08-21T11:27:28;24.48;51.87
70839;DHT22;58464;52.298;4.852;2022-08-21T11:29:59;23.98;52.82
70839;DHT22;58464;52.298;4.852;2022-08-21T11:34:56;24.31;53.05
70839;DHT22;58464;52.298;4.852;2022-08-21T11:46:14;23.68;54.22
70839;DHT22;58464;52.298;4.852;2022-08-21T11:52:13;23.99;52.45
70839;DHT22;58464;52.298;4.852;2022-08-21T11:55:05;24.65;51.62
70839;DHT22;58464;52.298;4.852;2022-08-21T11:57:40;24.43;52.37
70839;DHT22;58464;52.298;4.852;2022-08-21T12:00:18;23.72;53.85
70839;DHT22;58464;52.298;4.852;2022-08-21T12:02:50;23.68;54.47
70839;DHT22;58464;52.298;4.852;2022-08-21T12:05:33;23.24;56.30
70839;DHT22;58464;52.298;4.852;2022-08-21T12:08:05;23.72;55.98
70839;DHT22;58464;52.298;4.852;2022-08-21T12:10:37;23.08;57.03
70839;DHT22;58464;52.298;4.852;2022-08-21T12:13:25;23.25;56.27
70839;DHT22;58464;52.298;4.852;2022-08-21T12:15:51;23.52;56.35
70839;DHT22;58464;52.298;4.852;2022-08-21T12:18:30;23.42;55.39
70839;DHT22;58464;52.298;4.852;2022-08-21T12:24:00;23.79;53.58
70839;DHT22;58464;52.298;4.852;2022-08-21T12:26:35;23.48;54.76
70839;DHT22;58464;52.298;4.852;2022-08-21T12:29:15;23.55;54.77
70839;DHT22;58464;52.298;4.852;2022-08-21T12:31:54;23.34;55.43
70839;DHT22;58464;52.298;4.852;2022-08-21T12:34:25;23.86;54.54
70839;DHT22;58464;52.298;4.852;2022-08-21T12:36:58;23.61;55.76
70839;DHT22;58464;52.298;4.852;2022-08-21T12:39:27;23.58;55.37
70839;DHT22;58464;52.298;4.852;2022-08-21T12:42:05;24.03;54.47
70839;DHT22;58464;52.298;4.852;2022-08-21T12:44:58;23.83;55.32
70839;DHT22;58464;52.298;4.852;2022-08-21T12:47:31;23.65;55.47
70839;DHT22;58464;52.298;4.852;2022-08-21T12:50:03;23.49;54.93
70839;DHT22;58464;52.298;4.852;2022-08-21T12:52:34;23.82;53.90
70839;DHT22;58464;52.298;4.852;2022-08-21T12:55:00;24.13;54.36
70839;DHT22;58464;52.298;4.852;2022-08-21T12:57:28;24.14;54.10
70839;DHT22;58464;52.298;4.852;2022-08-21T13:00:00;24.05;54.38
70839;DHT22;58464;52.298;4.852;2022-08-21T13:02:33;24.10;54.47
70839;DHT22;58464;52.298;4.852;2022-08-21T13:05:04;24.14;54.65
70839;DHT22;58464;52.298;4.852;2022-08-21T13:07:32;24.00;55.10
70839;DHT22;58464;52.298;4.852;2022-08-21T13:10:05;23.20;56.73
70839;DHT22;58464;52.298;4.852;2022-08-21T13:12:33;23.17;57.20
70839;DHT22;58464;52.298;4.852;2022-08-21T13:15:04;23.35;56.37
70839;DHT22;58464;52.298;4.852;2022-08-21T13:17:32;23.38;56.45
70839;DHT22;58464;52.298;4.852;2022-08-21T13:20:27;23.55;56.30
70839;DHT22;58464;52.298;4.852;2022-08-21T13:22:50;23.70;56.47
70839;DHT22;58464;52.298;4.852;2022-08-21T13:25:19;23.27;57.11
70839;DHT22;58464;52.298;4.852;2022-08-21T13:27:59;23.63;56.95
70839;DHT22;58464;52.298;4.852;2022-08-21T13:30:25;23.59;56.41
70839;DHT22;58464;52.298;4.852;2022-08-21T13:32:58;23.65;55.65
70839;DHT22;58464;52.298;4.852;2022-08-21T13:38:29;23.52;54.24
70839;DHT22;58464;52.298;4.852;2022-08-21T13:40:58;23.66;54.55
70839;DHT22;58464;52.298;4.852;2022-08-21T13:43:32;23.72;54.91
70839;DHT22;58464;52.298;4.852;2022-08-21T13:45:59;23.62;54.41
70839;DHT22;58464;52.298;4.852;2022-08-21T13:48:28;23.76;54.28
70839;DHT22;58464;52.298;4.852;2022-08-21T13:50:55;23.42;55.13
70839;DHT22;58464;52.298;4.852;2022-08-21T13:53:34;23.17;56.09
70839;DHT22;58464;52.298;4.852;2022-08-21T13:56:01;23.25;55.66
70839;DHT22;58464;52.298;4.852;2022-08-21T13:58:29;23.21;55.13
70839;DHT22;58464;52.298;4.852;2022-08-21T14:00:56;23.34;54.62
70839;DHT22;58464;52.298;4.852;2022-08-21T14:05:58;23.55;54.54
70839;DHT22;58464;52.298;4.852;2022-08-21T14:10:55;23.31;55.89
70839;DHT22;58464;52.298;4.852;2022-08-21T14:13:28;23.34;55.70
70839;DHT22;58464;52.298;4.852;2022-08-21T14:15:57;23.34;55.41
70839;DHT22;58464;52.298;4.852;2022-08-21T14:18:23;23.32;54.50
70839;DHT22;58464;52.298;4.852;2022-08-21T14:20:51;23.66;54.25
70839;DHT22;58464;52.298;4.852;2022-08-21T14:23:25;23.49;53.56
70839;DHT22;58464;52.298;4.852;2022-08-21T14:25:51;23.39;55.52
70839;DHT22;58464;52.298;4.852;2022-08-21T14:28:25;23.37;55.34
70839;DHT22;58464;52.298;4.852;2022-08-21T14:30:52;23.57;55.24
70839;DHT22;58464;52.298;4.852;2022-08-21T14:33:25;23.20;56.22
70839;DHT22;58464;52.298;4.852;2022-08-21T14:35:51;23.14;56.22
70839;DHT22;58464;52.298;4.852;2022-08-21T14:38:19;23.17;56.36
70839;DHT22;58464;52.298;4.852;2022-08-21T14:40:52;23.06;55.88
70839;DHT22;58464;52.298;4.852;2022-08-21T14:43:19;23.00;56.12
70839;DHT22;58464;52.298;4.852;2022-08-21T14:45:45;22.80;56.70
70839;DHT22;58464;52.298;4.852;2022-08-21T14:48:11;22.96;57.06
70839;DHT22;58464;52.298;4.852;2022-08-21T14:50:37;22.99;55.74
70839;DHT22;58464;52.298;4.852;2022-08-21T14:53:02;23.08;56.79
70839;DHT22;58464;52.298;4.852;2022-08-21T14:55:29;23.08;56.08
70839;DHT22;58464;52.298;4.852;2022-08-21T14:57:55;23.11;56.70
70839;DHT22;58464;52.298;4.852;2022-08-21T15:00:23;23.15;55.36
70839;DHT22;58464;52.298;4.852;2022-08-21T15:02:50;23.24;55.18
70839;DHT22;58464;52.298;4.852;2022-08-21T15:05:16;23.49;54.88
70839;DHT22;58464;52.298;4.852;2022-08-21T15:07:42;23.44;55.61
70839;DHT22;58464;52.298;4.852;2022-08-21T15:10:08;23.32;55.60
70839;DHT22;58464;52.298;4.852;2022-08-21T15:12:34;23.20;55.46
70839;DHT22;58464;52.298;4.852;2022-08-21T15:15:04;22.91;56.78
70839;DHT22;58464;52.298;4.852;2022-08-21T15:17:29;23.25;56.02
70839;DHT22;58464;52.298;4.852;2022-08-21T15:19:55;23.45;55.16
70839;DHT22;58464;52.298;4.852;2022-08-21T15:22:20;23.42;54.63
70839;DHT22;58464;52.298;4.852;2022-08-21T15:24:45;23.11;55.60
70839;DHT22;58464;52.298;4.852;2022-08-21T15:27:12;23.25;55.05
70839;DHT22;58464;52.298;4.852;2022-08-21T15:29:39;23.21;55.25
70839;DHT22;58464;52.298;4.852;2022-08-21T15:32:21;23.35;54.99
70839;DHT22;58464;52.298;4.852;2022-08-21T15:34:48;23.47;54.53
70839;DHT22;58464;52.298;4.852;2022-08-21T15:37:15;23.44;54.83
70839;DHT22;58464;52.298;4.852;2022-08-21T15:39:40;23.59;54.95
70839;DHT22;58464;52.298;4.852;2022-08-21T15:42:07;23.28;56.00
70839;DHT22;58464;52.298;4.852;2022-08-21T15:44:33;23.04;55.33
70839;DHT22;58464;52.298;4.852;2022-08-21T15:46:59;23.18;55.40
70839;DHT22;58464;52.298;4.852;2022-08-21T15:49:24;23.06;54.64
70839;DHT22;58464;52.298;4.852;2022-08-21T15:51:50;23.18;54.85
70839;DHT22;58464;52.298;4.852;2022-08-21T15:54:15;23.70;53.45
70839;DHT22;58464;52.298;4.852;2022-08-21T15:56:43;23.73;52.87
70839;DHT22;58464;52.298;4.852;2022-08-21T15:59:17;23.45;53.30
70839;DHT22;58464;52.298;4.852;2022-08-21T16:01:42;23.57;53.06
70839;DHT22;58464;52.298;4.852;2022-08-21T16:04:09;23.76;52.54
70839;DHT22;58464;52.298;4.852;2022-08-21T16:06:35;24.06;52.10
70839;DHT22;58464;52.298;4.852;2022-08-21T16:09:00;24.68;50.48
70839;DHT22;58464;52.298;4.852;2022-08-21T16:11:27;23.99;51.87
70839;DHT22;58464;52.298;4.852;2022-08-21T16:13:52;23.75;52.14
70839;DHT22;58464;52.298;4.852;2022-08-21T16:16:20;23.93;51.85
70839;DHT22;58464;52.298;4.852;2022-08-21T16:18:46;24.37;50.74
70839;DHT22;58464;52.298;4.852;2022-08-21T16:21:13;23.55;52.65
70839;DHT22;58464;52.298;4.852;2022-08-21T16:23:38;23.82;52.57
70839;DHT22;58464;52.298;4.852;2022-08-21T16:26:07;23.99;51.43
70839;DHT22;58464;52.298;4.852;2022-08-21T16:28:35;23.93;51.50
70839;DHT22;58464;52.298;4.852;2022-08-21T16:31:02;24.89;49.30
70839;DHT22;58464;52.298;4.852;2022-08-21T16:33:43;25.30;47.53
70839;DHT22;58464;52.298;4.852;2022-08-21T16:36:11;25.76;46.78
70839;DHT22;58464;52.298;4.852;2022-08-21T16:38:37;26.34;45.66
70839;DHT22;58464;52.298;4.852;2022-08-21T16:41:04;26.35;45.35
70839;DHT22;58464;52.298;4.852;2022-08-21T16:43:32;26.80;44.39
70839;DHT22;58464;52.298;4.852;2022-08-21T16:45:58;27.47;42.90
70839;DHT22;58464;52.298;4.852;2022-08-21T16:48:24;26.17;45.07
70839;DHT22;58464;52.298;4.852;2022-08-21T16:50:49;24.95;47.96